Terminal Aerodrome Forecast
Issued by NWS

Home | Current Version | Previous Version | Text Only | Print | Product List | Glossary On
Versions: 1 2 3 4 5 6 7 8 9 10 11 12
046
FTUS45 KVEF 251139
TAFVGT
TAF
KVGT 251139Z 2512/2612 29010KT P6SM SCT150
     FM251700 16007KT P6SM FEW150 SCT250
     FM252100 23022G30KT P6SM FEW150 SCT250
     FM260400 22017G24KT P6SM FEW250=

USA.gov is the U.S. government's official web portal to all federal, state and local government web resources and services.